Time;durP1;ratioP1;P1;durP2;ratioP2;P2;SDS_P1;SDS_P2;PMS_P1;PMS_P2;Temp;Humidity;BMP_temperature;BMP_pressure;BME280_temperature;BME280_humidity;BME280_pressure;Samples;Min_cycle;Max_cycle;Signal;HPM_P1;HPM_P2
2022/07/30 00:00:38;;;;;;;;;;;14.90;99.90;;;;;;5070968;28;19916;-51
2022/07/30 00:03:03;;;;;;;;;;;14.80;99.90;;;;;;5063903;28;20396;-46
2022/07/30 00:05:29;;;;;;;;;;;14.80;99.90;;;;;;5053973;28;19917;-46
2022/07/30 00:07:54;;;;;;;;;;;14.80;99.90;;;;;;5072622;28;19925;-47
2022/07/30 00:10:21;;;;;;;;;;;14.80;99.90;;;;;;5073904;28;19978;-50
2022/07/30 00:12:47;;;;;;;;;;;14.80;99.90;;;;;;5058975;28;20006;-50
2022/07/30 00:15:13;;;;;;;;;;;14.80;99.90;;;;;;5065384;28;19958;-48
2022/07/30 00:17:38;;;;;;;;;;;14.80;99.90;;;;;;5049940;28;20406;-49
2022/07/30 00:20:04;;;;;;;;;;;14.80;99.90;;;;;;5064048;28;19925;-48
2022/07/30 00:22:30;;;;;;;;;;;14.80;99.90;;;;;;5066284;28;20397;-47
2022/07/30 00:24:55;;;;;;;;;;;14.90;99.90;;;;;;5068435;28;19950;-49
2022/07/30 00:27:21;;;;;;;;;;;14.90;99.90;;;;;;5054242;28;20424;-45
2022/07/30 00:29:46;;;;;;;;;;;14.90;99.90;;;;;;5073431;28;19916;-45
2022/07/30 00:32:12;;;;;;;;;;;14.90;99.90;;;;;;5064551;28;19928;-49
2022/07/30 00:34:37;;;;;;;;;;;14.90;99.90;;;;;;5054025;28;20447;-51
2022/07/30 00:37:03;;;;;;;;;;;14.90;99.90;;;;;;5053365;28;19920;-49
2022/07/30 00:39:29;;;;;;;;;;;14.90;99.90;;;;;;5053335;28;19916;-45
2022/07/30 00:42:02;;;;;;;;;;;14.90;99.90;;;;;;5057108;28;19920;-46
2022/07/30 00:44:28;;;;;;;;;;;14.90;99.90;;;;;;5071039;28;20292;-49
2022/07/30 00:46:54;;;;;;;;;;;14.90;99.90;;;;;;5064047;28;19921;-45
2022/07/30 00:49:19;;;;;;;;;;;14.80;99.90;;;;;;5066918;28;19996;-49
2022/07/30 00:51:45;;;;;;;;;;;14.80;99.90;;;;;;5053793;28;20034;-51
2022/07/30 00:54:11;;;;;;;;;;;14.80;99.90;;;;;;5068246;28;19927;-46
2022/07/30 00:56:36;;;;;;;;;;;14.70;99.90;;;;;;5053652;28;20039;-50
2022/07/30 00:59:03;;;;;;;;;;;14.70;99.90;;;;;;5064987;28;19916;-47
2022/07/30 01:01:30;;;;;;;;;;;14.70;99.90;;;;;;5064376;28;19928;-45
2022/07/30 01:03:56;;;;;;;;;;;14.70;99.90;;;;;;5054738;28;19916;-51
2022/07/30 01:06:21;;;;;;;;;;;14.70;99.90;;;;;;5060404;28;19974;-51
2022/07/30 01:08:47;;;;;;;;;;;14.70;99.90;;;;;;5063364;28;19917;-48
2022/07/30 01:11:12;;;;;;;;;;;14.60;99.90;;;;;;5052620;28;20382;-50
2022/07/30 01:13:38;;;;;;;;;;;14.60;99.90;;;;;;5065968;28;19916;-50
2022/07/30 01:16:03;;;;;;;;;;;14.60;99.90;;;;;;5057341;28;19920;-50
2022/07/30 01:19:47;;;;;;;;;;;14.50;99.90;;;;;;5053756;28;19917;-50
2022/07/30 01:21:17;;;;;;;;;;;14.60;99.90;;;;;;5052332;28;19928;-50
2022/07/30 01:23:44;;;;;;;;;;;14.50;99.90;;;;;;5065251;28;20407;-50
2022/07/30 01:26:11;;;;;;;;;;;14.40;99.90;;;;;;5063691;28;19939;-48
2022/07/30 01:28:39;;;;;;;;;;;14.50;99.90;;;;;;5055612;28;19917;-50
2022/07/30 01:31:05;;;;;;;;;;;14.50;99.90;;;;;;5052488;28;19916;-46
2022/07/30 01:33:33;;;;;;;;;;;14.50;99.90;;;;;;5054802;28;20344;-50
2022/07/30 01:36:00;;;;;;;;;;;14.50;99.90;;;;;;5052080;28;20344;-46
2022/07/30 01:38:26;;;;;;;;;;;14.50;99.90;;;;;;5059429;28;19923;-50
2022/07/30 01:40:52;;;;;;;;;;;14.50;99.90;;;;;;5069247;28;19920;-45
2022/07/30 01:43:18;;;;;;;;;;;14.50;99.90;;;;;;5063634;28;20357;-45
2022/07/30 01:45:45;;;;;;;;;;;14.40;99.90;;;;;;5052412;28;19955;-48
2022/07/30 01:48:12;;;;;;;;;;;14.40;99.90;;;;;;5057249;28;20403;-47
2022/07/30 01:50:40;;;;;;;;;;;14.30;99.90;;;;;;5057813;28;19959;-49
2022/07/30 01:53:06;;;;;;;;;;;14.30;99.90;;;;;;5054665;28;19917;-49
2022/07/30 01:55:35;;;;;;;;;;;14.30;99.90;;;;;;5059011;28;19927;-49
2022/07/30 01:58:02;;;;;;;;;;;14.20;99.90;;;;;;5059330;28;20412;-49
2022/07/30 02:00:29;;;;;;;;;;;14.20;99.90;;;;;;5052024;28;19916;-48
2022/07/30 02:02:55;;;;;;;;;;;14.20;99.90;;;;;;5055376;28;20004;-47
2022/07/30 02:05:21;;;;;;;;;;;14.20;99.90;;;;;;5051681;28;20003;-46
2022/07/30 02:07:46;;;;;;;;;;;14.20;99.90;;;;;;5053769;28;19917;-50
2022/07/30 02:10:14;;;;;;;;;;;14.20;99.90;;;;;;5052147;28;20003;-50
2022/07/30 02:12:44;;;;;;;;;;;14.20;99.90;;;;;;5062878;28;19916;-45
2022/07/30 02:15:13;;;;;;;;;;;14.10;99.90;;;;;;5051417;28;19962;-49
2022/07/30 02:17:44;;;;;;;;;;;14.10;99.90;;;;;;5057284;28;19916;-49
2022/07/30 02:20:10;;;;;;;;;;;14.10;99.90;;;;;;5055599;28;19916;-47
2022/07/30 02:22:38;;;;;;;;;;;14.10;99.90;;;;;;5053494;28;19987;-45
2022/07/30 02:25:04;;;;;;;;;;;14.10;99.90;;;;;;5062201;28;19916;-46
2022/07/30 02:27:32;;;;;;;;;;;14.00;99.90;;;;;;5052680;28;19999;-45
2022/07/30 02:29:59;;;;;;;;;;;14.00;99.90;;;;;;5069742;28;19916;-45
2022/07/30 02:32:26;;;;;;;;;;;14.00;99.90;;;;;;5056613;28;20423;-49
2022/07/30 02:34:54;;;;;;;;;;;14.00;99.90;;;;;;5052353;28;20374;-48
2022/07/30 02:37:22;;;;;;;;;;;14.00;99.90;;;;;;5050887;28;20022;-48
2022/07/30 02:39:48;;;;;;;;;;;14.00;99.90;;;;;;5070186;28;20395;-49
2022/07/30 02:42:14;;;;;;;;;;;14.00;99.90;;;;;;5064190;28;19971;-50
2022/07/30 02:44:41;;;;;;;;;;;14.00;99.90;;;;;;5053671;28;20010;-45
2022/07/30 02:47:07;;;;;;;;;;;14.00;99.90;;;;;;5051040;28;19988;-50
2022/07/30 02:49:34;;;;;;;;;;;13.90;99.90;;;;;;5066508;28;19921;-49
2022/07/30 02:52:00;;;;;;;;;;;13.90;99.90;;;;;;5054466;28;19924;-50
2022/07/30 02:54:27;;;;;;;;;;;13.90;99.90;;;;;;5063882;28;19917;-48
2022/07/30 02:56:53;;;;;;;;;;;13.90;99.90;;;;;;5070711;28;19969;-45
2022/07/30 02:59:19;;;;;;;;;;;13.90;99.90;;;;;;5056225;28;19923;-48
2022/07/30 03:01:45;;;;;;;;;;;13.90;99.90;;;;;;5050915;28;19944;-48
2022/07/30 03:04:12;;;;;;;;;;;13.90;99.90;;;;;;5064889;28;20381;-45
2022/07/30 03:06:38;;;;;;;;;;;13.90;99.90;;;;;;5070490;28;19916;-45
2022/07/30 03:09:04;;;;;;;;;;;14.00;99.90;;;;;;5062767;28;19916;-50
2022/07/30 03:11:30;;;;;;;;;;;13.90;99.90;;;;;;5051437;28;19978;-48
2022/07/30 03:13:56;;;;;;;;;;;14.00;99.90;;;;;;5051515;28;19962;-48
2022/07/30 03:16:23;;;;;;;;;;;13.90;99.90;;;;;;5050517;28;19921;-50
2022/07/30 03:18:50;;;;;;;;;;;13.90;99.90;;;;;;5054427;28;19916;-48
2022/07/30 03:21:16;;;;;;;;;;;13.90;99.90;;;;;;5052562;28;19925;-47
2022/07/30 03:23:43;;;;;;;;;;;13.80;99.90;;;;;;5051019;28;19917;-48
2022/07/30 03:26:09;;;;;;;;;;;13.70;99.90;;;;;;5050882;28;19918;-49
2022/07/30 03:28:36;;;;;;;;;;;13.70;99.90;;;;;;5050623;28;19923;-46
2022/07/30 03:31:03;;;;;;;;;;;13.60;99.90;;;;;;5070741;28;19956;-50
2022/07/30 03:33:30;;;;;;;;;;;13.60;99.90;;;;;;5068193;28;19928;-45
2022/07/30 03:35:56;;;;;;;;;;;13.60;99.90;;;;;;5073073;28;19928;-49
2022/07/30 03:38:22;;;;;;;;;;;13.60;99.90;;;;;;5066344;28;19927;-49
2022/07/30 03:40:48;;;;;;;;;;;13.60;99.90;;;;;;5071167;28;19917;-50
2022/07/30 03:43:13;;;;;;;;;;;13.60;99.90;;;;;;5057875;28;19944;-50
2022/07/30 03:45:41;;;;;;;;;;;13.60;99.90;;;;;;5053557;28;19920;-48
2022/07/30 03:48:07;;;;;;;;;;;13.60;99.90;;;;;;5065993;28;19978;-50
2022/07/30 03:50:36;;;;;;;;;;;13.60;99.90;;;;;;5056961;28;20374;-50
2022/07/30 03:53:03;;;;;;;;;;;13.60;99.90;;;;;;5053135;28;19924;-50
2022/07/30 03:55:29;;;;;;;;;;;13.60;99.90;;;;;;5055681;28;20355;-50
2022/07/30 03:57:55;;;;;;;;;;;13.50;99.90;;;;;;5063830;28;19986;-50
2022/07/30 04:00:20;;;;;;;;;;;13.50;99.90;;;;;;5078431;28;19920;-50
2022/07/30 04:02:46;;;;;;;;;;;13.50;99.90;;;;;;5063827;28;20014;-50
2022/07/30 04:05:12;;;;;;;;;;;13.50;99.90;;;;;;5064275;28;19966;-50
2022/07/30 04:07:38;;;;;;;;;;;13.60;99.90;;;;;;5053952;28;20000;-50
2022/07/30 04:10:03;;;;;;;;;;;13.60;99.90;;;;;;5061032;28;20000;-48
2022/07/30 04:12:29;;;;;;;;;;;13.60;99.90;;;;;;5073695;28;19920;-48
2022/07/30 04:14:56;;;;;;;;;;;13.60;99.90;;;;;;5068461;28;19917;-48
2022/07/30 04:17:27;;;;;;;;;;;13.60;99.90;;;;;;5054528;28;19920;-50
2022/07/30 04:19:56;;;;;;;;;;;13.60;99.90;;;;;;5069163;28;19971;-50
2022/07/30 04:22:31;;;;;;;;;;;13.50;99.90;;;;;;5053516;28;19933;-49
2022/07/30 04:24:57;;;;;;;;;;;13.50;99.90;;;;;;5056249;28;20185;-50
2022/07/30 04:27:24;;;;;;;;;;;13.30;99.90;;;;;;5055983;28;20011;-50
2022/07/30 04:29:51;;;;;;;;;;;13.30;99.90;;;;;;5054234;28;19916;-50
2022/07/30 04:32:17;;;;;;;;;;;13.20;99.90;;;;;;5053695;28;20396;-49
2022/07/30 04:34:49;;;;;;;;;;;13.30;99.90;;;;;;5053090;28;20396;-49
2022/07/30 04:37:15;;;;;;;;;;;13.30;99.90;;;;;;5048758;28;19923;-48
2022/07/30 04:39:41;;;;;;;;;;;13.40;99.90;;;;;;5052264;28;20293;-47
2022/07/30 04:42:06;;;;;;;;;;;13.50;99.90;;;;;;5069247;28;19920;-50
2022/07/30 04:44:33;;;;;;;;;;;13.50;99.90;;;;;;5060579;28;20179;-50
2022/07/30 04:46:58;;;;;;;;;;;13.50;99.90;;;;;;5062395;28;19917;-50
2022/07/30 04:49:26;;;;;;;;;;;13.60;99.90;;;;;;5054555;28;19970;-48
2022/07/30 04:51:52;;;;;;;;;;;13.50;99.90;;;;;;5062269;28;21956;-50
2022/07/30 04:54:18;;;;;;;;;;;13.60;99.90;;;;;;5053189;28;19916;-46
2022/07/30 04:56:45;;;;;;;;;;;13.60;99.90;;;;;;5063719;28;19920;-47
2022/07/30 04:59:11;;;;;;;;;;;13.60;99.90;;;;;;5065234;28;19927;-46
2022/07/30 05:01:39;;;;;;;;;;;13.60;99.90;;;;;;5067942;28;20377;-50
2022/07/30 05:04:05;;;;;;;;;;;13.60;99.90;;;;;;5070330;28;20335;-50
2022/07/30 05:06:31;;;;;;;;;;;13.70;99.90;;;;;;5060668;28;20369;-47
2022/07/30 05:08:56;;;;;;;;;;;13.70;99.90;;;;;;5052843;28;19923;-49
2022/07/30 05:11:22;;;;;;;;;;;13.70;99.90;;;;;;5063993;28;20015;-49
2022/07/30 05:13:48;;;;;;;;;;;13.80;99.90;;;;;;5053478;28;19928;-46
2022/07/30 05:16:14;;;;;;;;;;;13.80;99.90;;;;;;5064756;28;19920;-50
2022/07/30 05:18:40;;;;;;;;;;;13.90;99.90;;;;;;5052628;28;20378;-46
2022/07/30 05:21:05;;;;;;;;;;;13.90;99.90;;;;;;5062285;28;20377;-50
2022/07/30 05:23:31;;;;;;;;;;;14.00;99.90;;;;;;5054561;28;19990;-47
2022/07/30 05:25:56;;;;;;;;;;;14.00;99.90;;;;;;5063351;28;19916;-50
2022/07/30 05:28:22;;;;;;;;;;;14.10;99.90;;;;;;5070053;28;19916;-49
2022/07/30 05:30:47;;;;;;;;;;;14.10;99.90;;;;;;5053253;28;19970;-47
2022/07/30 05:33:13;;;;;;;;;;;14.20;99.90;;;;;;5052281;28;19917;-46
2022/07/30 05:35:38;;;;;;;;;;;14.20;99.90;;;;;;5058210;28;19956;-45
2022/07/30 05:38:04;;;;;;;;;;;14.30;99.90;;;;;;5072049;28;19917;-47
2022/07/30 05:40:30;;;;;;;;;;;14.30;99.90;;;;;;5058695;28;19924;-48
2022/07/30 05:42:55;;;;;;;;;;;14.40;99.90;;;;;;5053232;28;19921;-50
2022/07/30 05:45:21;;;;;;;;;;;14.50;99.90;;;;;;5055019;28;20457;-50
2022/07/30 05:47:47;;;;;;;;;;;14.50;99.90;;;;;;5052027;28;19917;-49
2022/07/30 05:50:12;;;;;;;;;;;14.60;99.90;;;;;;5051740;28;19916;-45
2022/07/30 05:52:38;;;;;;;;;;;14.70;99.90;;;;;;5063387;28;19936;-50
2022/07/30 05:55:03;;;;;;;;;;;14.80;99.90;;;;;;5050986;28;19920;-51
2022/07/30 05:57:29;;;;;;;;;;;14.80;99.90;;;;;;5051992;28;19943;-50
2022/07/30 05:59:54;;;;;;;;;;;14.90;99.90;;;;;;5051771;28;20376;-45
2022/07/30 06:02:20;;;;;;;;;;;15.00;99.90;;;;;;5068188;28;20408;-49
2022/07/30 06:04:45;;;;;;;;;;;15.00;99.90;;;;;;5051354;28;19923;-47
2022/07/30 06:07:11;;;;;;;;;;;15.10;99.90;;;;;;5052444;28;19926;-49
2022/07/30 06:09:36;;;;;;;;;;;15.20;99.90;;;;;;5051906;28;19921;-47
2022/07/30 06:12:02;;;;;;;;;;;15.30;99.90;;;;;;5058882;28;19923;-45
2022/07/30 06:14:28;;;;;;;;;;;15.30;99.90;;;;;;5054957;28;19924;-48
2022/07/30 06:16:53;;;;;;;;;;;15.40;99.90;;;;;;5051288;28;20011;-49
2022/07/30 06:19:19;;;;;;;;;;;15.50;99.90;;;;;;5051641;28;19917;-47
2022/07/30 06:21:44;;;;;;;;;;;15.60;99.90;;;;;;5050700;28;20301;-47
2022/07/30 06:24:10;;;;;;;;;;;15.70;99.90;;;;;;5051073;28;19920;-45
2022/07/30 06:26:35;;;;;;;;;;;15.70;99.90;;;;;;5051557;28;20454;-44
2022/07/30 06:29:00;;;;;;;;;;;15.80;99.90;;;;;;5051453;28;19924;-46
2022/07/30 06:31:26;;;;;;;;;;;15.90;99.90;;;;;;5051356;28;20025;-48
2022/07/30 06:33:51;;;;;;;;;;;16.00;99.90;;;;;;5050696;28;19923;-49
2022/07/30 06:36:17;;;;;;;;;;;16.10;99.90;;;;;;5054244;28;19920;-50
2022/07/30 06:38:42;;;;;;;;;;;16.20;99.90;;;;;;5051781;28;19964;-46
2022/07/30 06:41:08;;;;;;;;;;;16.20;99.90;;;;;;5052663;28;19917;-45
2022/07/30 06:43:34;;;;;;;;;;;16.30;99.90;;;;;;5053413;28;19921;-45
2022/07/30 06:46:00;;;;;;;;;;;16.50;99.90;;;;;;5069273;28;20498;-48
2022/07/30 06:48:25;;;;;;;;;;;16.60;99.90;;;;;;5051003;28;20392;-45
2022/07/30 06:50:51;;;;;;;;;;;16.70;99.90;;;;;;5051345;28;20310;-46
2022/07/30 06:53:16;;;;;;;;;;;16.80;99.90;;;;;;5058548;28;19927;-49
2022/07/30 06:55:42;;;;;;;;;;;17.00;99.90;;;;;;5051137;28;19917;-49
2022/07/30 06:58:07;;;;;;;;;;;17.00;99.90;;;;;;5055862;28;19917;-48
2022/07/30 07:00:33;;;;;;;;;;;17.10;99.90;;;;;;5057037;28;19963;-50
2022/07/30 07:02:58;;;;;;;;;;;17.20;99.90;;;;;;5050265;28;19947;-46
2022/07/30 07:05:27;;;;;;;;;;;17.20;99.90;;;;;;5060543;28;20388;-46
2022/07/30 07:07:53;;;;;;;;;;;17.30;99.90;;;;;;5054078;28;19920;-47
2022/07/30 07:10:19;;;;;;;;;;;17.40;99.90;;;;;;5050939;28;19985;-46
2022/07/30 07:12:45;;;;;;;;;;;17.50;99.90;;;;;;5050438;28;19921;-50
2022/07/30 07:15:10;;;;;;;;;;;17.60;99.90;;;;;;5050259;28;19924;-46
2022/07/30 07:17:36;;;;;;;;;;;17.70;99.90;;;;;;5058460;28;20057;-50
2022/07/30 07:20:01;;;;;;;;;;;17.80;99.90;;;;;;5070560;28;19917;-49
2022/07/30 07:22:27;;;;;;;;;;;17.90;99.90;;;;;;5063574;28;19920;-46
2022/07/30 07:24:52;;;;;;;;;;;18.00;99.90;;;;;;5049694;28;19916;-46
2022/07/30 07:27:18;;;;;;;;;;;18.10;99.90;;;;;;5051328;28;19916;-50
2022/07/30 07:29:43;;;;;;;;;;;18.30;99.90;;;;;;5050080;28;19956;-47
2022/07/30 07:32:09;;;;;;;;;;;18.40;99.90;;;;;;5052978;28;19924;-46
2022/07/30 07:34:34;;;;;;;;;;;18.40;99.90;;;;;;5069020;28;19935;-46
2022/07/30 07:37:00;;;;;;;;;;;18.50;99.90;;;;;;5050386;28;19920;-47
2022/07/30 07:39:25;;;;;;;;;;;18.50;99.90;;;;;;5070474;28;20389;-46
2022/07/30 07:41:51;;;;;;;;;;;18.50;99.90;;;;;;5070255;28;19976;-48
2022/07/30 07:44:16;;;;;;;;;;;18.50;99.90;;;;;;5050883;28;19917;-48
2022/07/30 07:46:42;;;;;;;;;;;18.60;99.90;;;;;;5049637;28;19924;-47
2022/07/30 07:49:08;;;;;;;;;;;18.60;99.90;;;;;;5059166;28;19950;-46
2022/07/30 07:51:34;;;;;;;;;;;18.60;99.90;;;;;;5064855;28;19916;-51
2022/07/30 07:54:00;;;;;;;;;;;18.70;99.90;;;;;;5065442;28;20404;-45
2022/07/30 07:56:26;;;;;;;;;;;18.70;99.90;;;;;;5061296;28;19917;-46
2022/07/30 07:58:52;;;;;;;;;;;18.80;99.90;;;;;;5063350;28;20356;-49
2022/07/30 08:01:18;;;;;;;;;;;18.80;99.90;;;;;;5069802;28;19972;-45
2022/07/30 08:03:44;;;;;;;;;;;19.00;99.90;;;;;;5055928;28;19921;-45
2022/07/30 08:06:09;;;;;;;;;;;19.10;99.90;;;;;;5049994;28;20404;-45
2022/07/30 08:08:35;;;;;;;;;;;19.30;99.90;;;;;;5059547;28;19917;-47
2022/07/30 08:11:01;;;;;;;;;;;19.30;99.90;;;;;;5062415;28;20043;-51
2022/07/30 08:13:27;;;;;;;;;;;19.30;99.90;;;;;;5050884;28;20027;-45
2022/07/30 08:15:52;;;;;;;;;;;19.50;99.90;;;;;;5049776;28;19924;-47
2022/07/30 08:18:18;;;;;;;;;;;19.70;99.90;;;;;;5056503;28;19916;-47
2022/07/30 08:20:43;;;;;;;;;;;19.70;99.90;;;;;;5073894;28;19916;-47
2022/07/30 08:23:09;;;;;;;;;;;19.90;99.90;;;;;;5069103;28;19920;-46
2022/07/30 08:25:34;;;;;;;;;;;19.90;99.90;;;;;;5053418;28;20010;-52
2022/07/30 08:28:02;;;;;;;;;;;20.00;99.90;;;;;;5054918;28;20409;-47
2022/07/30 08:30:27;;;;;;;;;;;20.00;99.90;;;;;;5070435;28;19916;-50
2022/07/30 08:32:53;;;;;;;;;;;20.20;99.90;;;;;;5056156;28;19927;-48
2022/07/30 08:35:18;;;;;;;;;;;20.20;99.90;;;;;;5073909;28;19962;-47
2022/07/30 08:37:44;;;;;;;;;;;20.30;99.90;;;;;;5070788;28;19916;-48
2022/07/30 08:40:10;;;;;;;;;;;20.40;99.90;;;;;;5053749;28;19944;-46
2022/07/30 08:42:36;;;;;;;;;;;20.50;99.90;;;;;;5053232;28;20016;-49
2022/07/30 08:45:02;;;;;;;;;;;20.60;99.90;;;;;;5053914;28;19939;-51
2022/07/30 08:47:30;;;;;;;;;;;20.60;99.90;;;;;;5053160;28;20390;-46
2022/07/30 08:50:00;;;;;;;;;;;20.70;99.90;;;;;;5053079;28;19917;-51
2022/07/30 08:52:26;;;;;;;;;;;20.80;99.90;;;;;;5051282;28;19923;-47
2022/07/30 08:54:52;;;;;;;;;;;20.90;99.90;;;;;;5053268;28;19921;-50
2022/07/30 08:57:18;;;;;;;;;;;21.00;99.90;;;;;;5053166;28;19916;-46
2022/07/30 08:59:44;;;;;;;;;;;21.00;99.90;;;;;;5056072;28;19970;-47
2022/07/30 09:02:09;;;;;;;;;;;21.10;99.90;;;;;;5053087;28;19924;-46
2022/07/30 09:04:35;;;;;;;;;;;21.20;99.90;;;;;;5064490;28;19962;-48
2022/07/30 09:07:01;;;;;;;;;;;21.40;99.90;;;;;;5072817;28;20015;-46
2022/07/30 09:09:26;;;;;;;;;;;21.40;99.90;;;;;;5061006;28;20007;-47
2022/07/30 09:11:52;;;;;;;;;;;21.50;99.90;;;;;;5052852;28;19917;-46
2022/07/30 09:14:17;;;;;;;;;;;21.60;99.90;;;;;;5053152;28;19917;-49
2022/07/30 09:16:44;;;;;;;;;;;21.60;99.90;;;;;;5052566;28;19917;-47
2022/07/30 09:19:11;;;;;;;;;;;21.60;99.90;;;;;;5059014;28;19916;-46
2022/07/30 09:21:36;;;;;;;;;;;21.60;99.90;;;;;;5055739;28;19928;-47
2022/07/30 09:24:03;;;;;;;;;;;21.70;99.90;;;;;;5056635;28;20297;-48
2022/07/30 09:26:30;;;;;;;;;;;21.80;99.90;;;;;;5070945;28;19931;-46
2022/07/30 09:29:14;;;;;;;;;;;21.90;99.90;;;;;;5067369;28;20389;-47
2022/07/30 09:31:51;;;;;;;;;;;21.90;99.90;;;;;;5056798;28;19944;-47
2022/07/30 09:34:33;;;;;;;;;;;21.90;99.90;;;;;;5052827;28;19920;-46
2022/07/30 09:37:00;;;;;;;;;;;22.00;99.90;;;;;;5052120;28;19916;-51
2022/07/30 09:39:31;;;;;;;;;;;22.20;99.90;;;;;;5058030;28;19916;-49
2022/07/30 09:41:57;;;;;;;;;;;22.40;99.90;;;;;;5057743;28;19954;-49
2022/07/30 09:44:23;;;;;;;;;;;22.50;99.90;;;;;;5055483;28;20301;-46
2022/07/30 09:46:52;;;;;;;;;;;22.70;99.90;;;;;;5056552;28;19932;-47
2022/07/30 09:49:21;;;;;;;;;;;22.80;99.90;;;;;;5050559;28;20293;-46
2022/07/30 09:51:47;;;;;;;;;;;22.90;99.90;;;;;;5050267;28;19924;-46
2022/07/30 09:54:13;;;;;;;;;;;23.00;99.90;;;;;;5052564;28;19936;-47
2022/07/30 09:56:42;;;;;;;;;;;23.10;99.50;;;;;;5052364;28;20292;-50
2022/07/30 09:59:27;;;;;;;;;;;23.10;99.20;;;;;;5052553;28;19916;-49
2022/07/30 10:01:53;;;;;;;;;;;23.20;99.90;;;;;;5070636;28;19927;-46
2022/07/30 10:04:29;;;;;;;;;;;23.30;98.70;;;;;;5071624;28;19926;-48
2022/07/30 10:06:55;;;;;;;;;;;23.40;98.90;;;;;;5059660;28;19917;-46
2022/07/30 10:09:28;;;;;;;;;;;23.50;98.30;;;;;;5050560;28;19921;-47
2022/07/30 10:11:55;;;;;;;;;;;23.60;98.30;;;;;;5055752;28;19916;-48
2022/07/30 10:14:22;;;;;;;;;;;23.70;98.20;;;;;;5071436;28;19917;-49
2022/07/30 10:16:49;;;;;;;;;;;23.80;98.80;;;;;;5068890;28;19925;-50
2022/07/30 10:19:14;;;;;;;;;;;23.90;97.60;;;;;;5051733;28;20369;-48
2022/07/30 10:21:40;;;;;;;;;;;23.90;96.50;;;;;;5052057;28;19928;-47
2022/07/30 10:24:07;;;;;;;;;;;24.00;97.40;;;;;;5050871;28;20317;-48
2022/07/30 10:26:36;;;;;;;;;;;24.00;96.20;;;;;;5050410;28;19939;-46
2022/07/30 10:29:01;;;;;;;;;;;23.90;96.40;;;;;;5051367;28;19928;-48
2022/07/30 10:31:27;;;;;;;;;;;24.00;95.30;;;;;;5051008;28;19917;-46
2022/07/30 10:33:53;;;;;;;;;;;23.80;95.40;;;;;;5051218;28;20437;-47
2022/07/30 10:36:19;;;;;;;;;;;23.80;95.20;;;;;;5050775;28;19916;-47
2022/07/30 10:38:46;;;;;;;;;;;23.70;93.80;;;;;;5067536;28;19916;-47
2022/07/30 10:41:41;;;;;;;;;;;23.70;94.10;;;;;;5070724;28;19927;-46
2022/07/30 10:44:16;;;;;;;;;;;23.70;95.60;;;;;;4996693;28;19925;-45
2022/07/30 10:47:02;;;;;;;;;;;23.80;94.70;;;;;;5031314;28;19913;-46
2022/07/30 10:49:27;;;;;;;;;;;23.90;95.20;;;;;;5031269;28;19917;-47
2022/07/30 10:51:53;;;;;;;;;;;24.10;94.30;;;;;;5046031;28;19922;-46
2022/07/30 10:54:37;;;;;;;;;;;24.20;93.90;;;;;;5053499;28;19957;-49
2022/07/30 10:57:06;;;;;;;;;;;24.20;93.80;;;;;;5057789;28;20296;-46
2022/07/30 10:59:50;;;;;;;;;;;24.50;94.30;;;;;;5069545;28;19931;-46
2022/07/30 11:02:16;;;;;;;;;;;24.60;94.60;;;;;;5062045;28;19920;-47
2022/07/30 11:04:42;;;;;;;;;;;24.60;92.10;;;;;;5053910;28;20295;-47
2022/07/30 11:07:19;;;;;;;;;;;24.70;92.30;;;;;;5051424;28;19963;-46
2022/07/30 11:09:45;;;;;;;;;;;24.70;92.10;;;;;;5050850;28;20350;-46
2022/07/30 11:12:11;;;;;;;;;;;24.80;92.10;;;;;;5056390;28;19927;-47
2022/07/30 11:14:45;;;;;;;;;;;24.80;91.40;;;;;;5061963;28;19991;-47
2022/07/30 11:17:15;;;;;;;;;;;24.80;91.40;;;;;;5055047;28;20028;-47
2022/07/30 11:19:59;;;;;;;;;;;24.70;92.10;;;;;;5070909;28;20339;-49
2022/07/30 11:22:30;;;;;;;;;;;24.70;92.30;;;;;;5064306;28;19921;-47
2022/07/30 11:24:56;;;;;;;;;;;24.80;92.10;;;;;;5048549;28;20344;-50
2022/07/30 11:27:40;;;;;;;;;;;24.90;92.80;;;;;;5050980;28;19982;-47
2022/07/30 11:30:15;;;;;;;;;;;25.00;92.30;;;;;;5050393;28;19975;-46
2022/07/30 11:32:41;;;;;;;;;;;25.10;90.90;;;;;;5056120;28;19923;-49
2022/07/30 11:35:11;;;;;;;;;;;25.10;90.50;;;;;;5064905;28;20301;-47
2022/07/30 11:37:55;;;;;;;;;;;25.00;87.50;;;;;;5054805;28;20396;-47
2022/07/30 11:40:22;;;;;;;;;;;24.90;86.30;;;;;;5050015;28;20003;-48
2022/07/30 11:42:48;;;;;;;;;;;24.90;88.50;;;;;;5051125;28;19920;-47
2022/07/30 11:45:16;;;;;;;;;;;25.00;90.30;;;;;;5049772;28;20393;-46
2022/07/30 11:47:43;;;;;;;;;;;25.00;90.00;;;;;;5060100;28;19924;-47
2022/07/30 11:50:28;;;;;;;;;;;25.10;90.20;;;;;;5060788;28;20401;-47
2022/07/30 11:52:53;;;;;;;;;;;25.20;88.50;;;;;;5056861;28;19917;-46
2022/07/30 11:55:38;;;;;;;;;;;25.20;89.70;;;;;;5063163;28;19923;-47
2022/07/30 11:58:04;;;;;;;;;;;25.20;87.40;;;;;;5058580;28;19942;-50
2022/07/30 12:00:34;;;;;;;;;;;25.30;90.40;;;;;;5053827;28;20318;-46
2022/07/30 12:03:05;;;;;;;;;;;25.50;87.90;;;;;;5060169;28;19931;-49
2022/07/30 12:05:31;;;;;;;;;;;25.40;86.30;;;;;;5071647;28;20332;-48
2022/07/30 12:07:57;;;;;;;;;;;25.50;85.80;;;;;;5058707;28;19916;-47
2022/07/30 12:10:22;;;;;;;;;;;25.50;87.20;;;;;;5059411;28;20301;-48
2022/07/30 12:12:48;;;;;;;;;;;25.60;90.50;;;;;;5054508;28;20015;-49
2022/07/30 12:15:29;;;;;;;;;;;25.70;88.90;;;;;;5053929;28;19926;-50
2022/07/30 12:17:55;;;;;;;;;;;25.80;87.50;;;;;;5057140;28;20365;-46
2022/07/30 12:20:20;;;;;;;;;;;25.80;86.30;;;;;;5073939;28;20119;-51
2022/07/30 12:22:46;;;;;;;;;;;25.80;87.30;;;;;;5071798;28;19921;-48
2022/07/30 12:25:12;;;;;;;;;;;25.80;85.90;;;;;;5053455;28;19952;-48
2022/07/30 12:27:38;;;;;;;;;;;25.80;85.50;;;;;;5053014;28;20175;-46
2022/07/30 12:30:04;;;;;;;;;;;25.90;85.70;;;;;;5073173;28;20442;-49
2022/07/30 12:32:30;;;;;;;;;;;25.90;84.90;;;;;;5058367;28;20114;-48
2022/07/30 12:34:56;;;;;;;;;;;25.80;83.60;;;;;;5057327;28;20008;-47
2022/07/30 12:37:22;;;;;;;;;;;25.80;84.30;;;;;;5052995;28;19936;-47
2022/07/30 12:39:48;;;;;;;;;;;25.60;81.30;;;;;;5068508;28;19916;-48
2022/07/30 12:42:19;;;;;;;;;;;25.50;81.90;;;;;;5056121;28;20656;-49
2022/07/30 12:44:45;;;;;;;;;;;25.50;84.10;;;;;;5053245;28;20086;-46
2022/07/30 12:47:37;;;;;;;;;;;25.40;84.40;;;;;;5052905;28;19968;-47
2022/07/30 12:50:14;;;;;;;;;;;25.40;83.90;;;;;;5067191;28;20446;-51
2022/07/30 12:52:46;;;;;;;;;;;25.50;82.90;;;;;;5057093;28;19950;-47
2022/07/30 12:55:12;;;;;;;;;;;25.50;81.30;;;;;;5053286;28;20369;-47
2022/07/30 12:57:51;;;;;;;;;;;25.60;81.00;;;;;;5053139;28;19970;-46
2022/07/30 13:00:17;;;;;;;;;;;25.70;77.40;;;;;;5069381;28;19916;-47
2022/07/30 13:02:42;;;;;;;;;;;25.70;76.90;;;;;;5061816;28;20042;-47
2022/07/30 13:05:08;;;;;;;;;;;25.80;76.10;;;;;;5053563;28;19978;-46
2022/07/30 13:07:35;;;;;;;;;;;25.80;75.30;;;;;;5051450;28;19917;-47
2022/07/30 13:10:07;;;;;;;;;;;25.80;74.30;;;;;;5066731;28;20443;-48
2022/07/30 13:12:33;;;;;;;;;;;25.70;75.40;;;;;;5057573;28;20348;-49
2022/07/30 13:14:58;;;;;;;;;;;25.60;76.60;;;;;;5053575;28;19916;-47
2022/07/30 13:17:23;;;;;;;;;;;25.50;76.80;;;;;;5052933;28;19916;-47
2022/07/30 13:19:49;;;;;;;;;;;25.50;78.60;;;;;;5063567;28;19923;-51
2022/07/30 13:22:15;;;;;;;;;;;25.60;79.10;;;;;;5072708;28;20369;-49
2022/07/30 13:24:40;;;;;;;;;;;25.70;79.10;;;;;;5070772;28;19927;-46
2022/07/30 13:27:06;;;;;;;;;;;25.70;77.80;;;;;;5072723;28;20431;-46
2022/07/30 13:29:31;;;;;;;;;;;25.50;77.10;;;;;;5069000;28;19923;-47
2022/07/30 13:31:56;;;;;;;;;;;25.40;75.80;;;;;;5072737;28;19917;-49
2022/07/30 13:34:22;;;;;;;;;;;25.30;76.00;;;;;;5060079;28;19920;-48
2022/07/30 13:36:47;;;;;;;;;;;25.20;76.70;;;;;;5052163;28;19924;-49
2022/07/30 13:39:13;;;;;;;;;;;25.20;76.30;;;;;;5065763;28;19938;-46
2022/07/30 13:41:40;;;;;;;;;;;25.20;76.90;;;;;;5051691;28;19921;-47
2022/07/30 13:44:06;;;;;;;;;;;25.20;74.50;;;;;;5052746;28;19951;-49
2022/07/30 13:46:32;;;;;;;;;;;25.10;75.20;;;;;;5052079;28;20013;-46
2022/07/30 13:48:58;;;;;;;;;;;25.10;74.80;;;;;;5052438;28;20289;-48
2022/07/30 13:51:23;;;;;;;;;;;25.10;75.50;;;;;;5068851;28;19917;-46
2022/07/30 13:53:49;;;;;;;;;;;25.10;75.80;;;;;;5052250;28;19916;-49
2022/07/30 13:56:15;;;;;;;;;;;25.10;76.20;;;;;;5069780;28;19916;-48
2022/07/30 13:58:41;;;;;;;;;;;25.20;76.00;;;;;;5053499;28;19971;-47
2022/07/30 14:01:06;;;;;;;;;;;25.20;76.20;;;;;;5051897;28;19955;-46
2022/07/30 14:03:32;;;;;;;;;;;25.40;74.70;;;;;;5064304;28;20409;-46
2022/07/30 14:05:57;;;;;;;;;;;25.50;73.30;;;;;;5056332;28;19917;-48
2022/07/30 14:08:24;;;;;;;;;;;25.50;71.60;;;;;;5051338;28;19916;-48
2022/07/30 14:10:49;;;;;;;;;;;25.50;71.70;;;;;;5064824;28;19916;-47
2022/07/30 14:13:15;;;;;;;;;;;25.50;73.90;;;;;;5052241;28;19924;-47
2022/07/30 14:15:40;;;;;;;;;;;25.50;75.00;;;;;;5061907;28;20011;-47